createdAt,value
2022-10-14T00:01:58.542Z,24.02
2022-10-14T00:04:25.477Z,24.92
2022-10-14T00:06:52.327Z,26.67
2022-10-14T00:09:19.214Z,28.00
2022-10-14T00:11:46.066Z,27.50
2022-10-14T00:14:16.730Z,28.92
2022-10-14T00:16:45.585Z,30.40
2022-10-14T00:19:13.356Z,27.83
2022-10-14T00:21:42.607Z,28.33
2022-10-14T00:24:11.887Z,28.65
2022-10-14T00:26:39.872Z,29.88
2022-10-14T00:29:13.401Z,29.30
2022-10-14T00:31:40.393Z,27.92
2022-10-14T00:34:07.398Z,28.13
2022-10-14T00:36:34.252Z,29.02
2022-10-14T00:39:01.130Z,29.38
2022-10-14T00:41:30.899Z,27.27
2022-10-14T00:44:15.880Z,27.42
2022-10-14T00:46:51.732Z,26.08
2022-10-14T00:49:27.873Z,26.52
2022-10-14T00:52:01.079Z,27.60
2022-10-14T00:54:32.497Z,27.77
2022-10-14T00:56:59.459Z,28.85
2022-10-14T00:59:26.402Z,29.77
2022-10-14T01:01:53.629Z,27.75
2022-10-14T01:04:20.492Z,25.98
2022-10-14T01:06:56.038Z,25.45
2022-10-14T01:09:47.763Z,25.42
2022-10-14T01:12:30.518Z,25.08
2022-10-14T01:15:16.144Z,24.50
2022-10-14T01:17:51.967Z,23.77
2022-10-14T01:20:55.218Z,23.60
2022-10-14T01:23:48.866Z,22.85
2022-10-14T01:26:28.803Z,21.73
2022-10-14T01:29:16.742Z,21.98
2022-10-14T01:31:47.513Z,22.15
2022-10-14T01:34:19.659Z,24.00
2022-10-14T01:36:52.016Z,24.40
2022-10-14T01:39:21.389Z,24.83
2022-10-14T01:41:56.161Z,23.70
2022-10-14T01:44:24.474Z,24.58
2022-10-14T01:46:54.681Z,23.95
2022-10-14T01:49:31.123Z,25.20
2022-10-14T01:52:02.593Z,22.90
2022-10-14T01:54:38.233Z,24.17
2022-10-14T01:57:16.094Z,21.60
2022-10-14T01:59:44.451Z,23.48
2022-10-14T02:02:13.299Z,22.67
2022-10-14T02:04:40.431Z,23.95
2022-10-14T02:07:29.565Z,24.70
2022-10-14T02:10:25.294Z,23.90
2022-10-14T02:13:06.755Z,23.80
2022-10-14T02:16:38.790Z,22.75
2022-10-14T02:19:17.071Z,22.48
2022-10-14T02:21:44.764Z,21.02
2022-10-14T02:24:19.168Z,19.05
2022-10-14T02:26:47.884Z,17.52
2022-10-14T02:29:14.729Z,16.17
2022-10-14T02:31:43.260Z,16.13
2022-10-14T02:34:13.064Z,15.27
2022-10-14T02:36:41.809Z,14.27
2022-10-14T02:39:11.311Z,19.23
2022-10-14T02:41:38.914Z,16.45
2022-10-14T02:44:06.583Z,20.75
2022-10-14T02:46:34.950Z,22.35
2022-10-14T02:49:02.170Z,21.55
2022-10-14T02:51:29.027Z,22.25
2022-10-14T02:53:57.540Z,20.42
2022-10-14T02:56:24.634Z,21.10
2022-10-14T02:58:51.443Z,19.52
2022-10-14T03:01:18.395Z,9.73
2022-10-14T03:03:45.366Z,13.40
2022-10-14T03:06:12.677Z,14.70
2022-10-14T03:08:39.455Z,12.02
2022-10-14T03:11:06.285Z,14.50
2022-10-14T03:13:33.200Z,11.63
2022-10-14T03:16:00.167Z,12.20
2022-10-14T03:18:27.179Z,13.15
2022-10-14T03:20:54.171Z,14.15
2022-10-14T03:23:20.970Z,19.33
2022-10-14T03:25:47.834Z,18.95
2022-10-14T03:28:14.785Z,20.00
2022-10-14T03:30:41.672Z,19.25
2022-10-14T03:33:08.559Z,19.13
2022-10-14T03:35:35.808Z,17.00
2022-10-14T03:38:03.919Z,17.27
2022-10-14T03:40:31.280Z,15.57
2022-10-14T03:43:00.873Z,13.88
2022-10-14T03:45:28.638Z,13.00
2022-10-14T03:47:56.321Z,14.48
2022-10-14T03:50:23.299Z,13.68
2022-10-14T03:52:54.721Z,14.75
2022-10-14T03:55:22.905Z,14.02
2022-10-14T03:57:49.787Z,14.90
2022-10-14T04:00:16.825Z,13.93
2022-10-14T04:02:43.715Z,13.25
2022-10-14T04:05:10.881Z,12.88
2022-10-14T04:07:37.867Z,12.90
2022-10-14T04:10:05.600Z,12.65
2022-10-14T04:12:32.779Z,12.00
2022-10-14T04:14:59.624Z,11.43
2022-10-14T04:17:26.588Z,9.73
2022-10-14T04:19:53.571Z,9.90
2022-10-14T04:22:21.036Z,7.97
2022-10-14T04:24:48.083Z,8.27
2022-10-14T04:27:14.933Z,9.10
2022-10-14T04:29:41.743Z,9.23
2022-10-14T04:32:08.777Z,9.18
2022-10-14T04:34:35.640Z,9.40
2022-10-14T04:37:02.511Z,9.27
2022-10-14T04:39:29.334Z,9.38
2022-10-14T04:41:56.216Z,9.57
2022-10-14T04:44:23.014Z,9.32
2022-10-14T04:46:49.977Z,9.50
2022-10-14T04:49:16.777Z,8.15
2022-10-14T04:51:43.778Z,7.80
2022-10-14T04:54:10.706Z,7.78
2022-10-14T04:56:37.913Z,7.35
2022-10-14T04:59:05.103Z,7.10
2022-10-14T05:01:34.112Z,7.68
2022-10-14T05:04:01.211Z,8.35
2022-10-14T05:06:28.224Z,8.07
2022-10-14T05:08:55.075Z,7.82
2022-10-14T05:11:22.001Z,6.95
2022-10-14T05:13:48.929Z,7.35
2022-10-14T05:16:15.924Z,8.20
2022-10-14T05:18:42.831Z,7.72
2022-10-14T05:21:10.323Z,7.63
2022-10-14T05:23:37.262Z,7.53
2022-10-14T05:26:04.515Z,7.55
2022-10-14T05:28:31.440Z,8.18
2022-10-14T05:30:58.437Z,7.00
2022-10-14T05:33:25.388Z,6.45
2022-10-14T05:35:59.096Z,6.93
2022-10-14T05:38:26.679Z,7.05
2022-10-14T05:40:57.506Z,7.03
2022-10-14T05:43:30.919Z,6.95
2022-10-14T05:45:58.908Z,6.85
2022-10-14T05:48:25.785Z,5.32
2022-10-14T05:50:53.032Z,4.65
2022-10-14T05:53:20.086Z,4.68
2022-10-14T05:55:46.952Z,5.30
2022-10-14T05:58:13.815Z,4.35
2022-10-14T06:00:40.656Z,4.72
2022-10-14T06:03:07.584Z,4.53
2022-10-14T06:05:37.414Z,4.47
2022-10-14T06:08:05.138Z,5.38
2022-10-14T06:10:31.997Z,6.05
2022-10-14T06:12:58.966Z,6.90
2022-10-14T06:15:25.881Z,6.38
2022-10-14T06:17:52.939Z,5.90
2022-10-14T06:20:19.834Z,7.25
2022-10-14T06:22:46.789Z,6.55
2022-10-14T06:25:13.687Z,6.13
2022-10-14T06:27:40.542Z,7.25
2022-10-14T06:30:08.043Z,6.30
2022-10-14T06:32:34.948Z,6.20
2022-10-14T06:35:01.847Z,5.65
2022-10-14T06:37:28.707Z,5.55
2022-10-14T06:39:55.790Z,4.30
2022-10-14T06:42:22.924Z,4.95
2022-10-14T06:44:50.113Z,4.70
2022-10-14T06:47:17.004Z,4.30
2022-10-14T06:49:43.967Z,5.00
2022-10-14T06:52:10.836Z,5.30
2022-10-14T06:54:39.429Z,4.72
2022-10-14T06:57:07.492Z,5.82
2022-10-14T06:59:34.427Z,6.50
2022-10-14T07:02:01.276Z,7.65
2022-10-14T07:04:28.234Z,6.53
2022-10-14T07:06:57.501Z,5.80
2022-10-14T07:09:25.164Z,4.82
2022-10-14T07:11:52.102Z,5.28
2022-10-14T07:14:18.959Z,5.53
2022-10-14T07:16:46.219Z,5.63
2022-10-14T07:19:13.315Z,5.20
2022-10-14T07:21:40.178Z,5.30
2022-10-14T07:24:07.306Z,3.78
2022-10-14T07:26:34.127Z,4.82
2022-10-14T07:29:01.214Z,4.40
2022-10-14T07:31:29.997Z,3.35
2022-10-14T07:33:57.146Z,2.83
2022-10-14T07:36:24.021Z,1.83
2022-10-14T07:38:51.055Z,2.00
2022-10-14T07:41:21.650Z,2.25
2022-10-14T07:43:54.163Z,1.85
2022-10-14T07:46:29.545Z,1.73
2022-10-14T07:48:58.036Z,1.85
2022-10-14T07:51:25.862Z,1.33
2022-10-14T07:53:53.350Z,1.48
2022-10-14T07:56:20.934Z,1.80
2022-10-14T07:58:48.324Z,1.80
2022-10-14T08:01:16.413Z,1.23
2022-10-14T08:03:43.647Z,2.20
2022-10-14T08:06:12.796Z,1.60
2022-10-14T08:08:40.329Z,1.60
2022-10-14T08:11:10.356Z,1.20
2022-10-14T08:13:41.843Z,1.48
2022-10-14T08:16:23.954Z,1.30
2022-10-14T08:18:51.392Z,1.63
2022-10-14T08:21:19.546Z,1.40
2022-10-14T08:23:46.419Z,1.45
2022-10-14T08:26:26.904Z,1.00
2022-10-14T08:28:53.876Z,1.20
2022-10-14T08:31:21.280Z,1.35
2022-10-14T08:33:48.293Z,1.65
2022-10-14T08:36:15.833Z,1.50
2022-10-14T08:38:42.906Z,1.40
2022-10-14T08:41:12.771Z,1.50
2022-10-14T08:43:54.627Z,1.92
2022-10-14T08:46:51.028Z,1.40
2022-10-14T08:49:44.792Z,1.50
2022-10-14T08:52:16.268Z,1.40
2022-10-14T08:54:51.040Z,1.48
2022-10-14T08:57:20.705Z,1.63
2022-10-14T08:59:48.078Z,1.30
2022-10-14T09:02:26.655Z,1.30
2022-10-14T09:04:53.619Z,1.20
2022-10-14T09:07:20.497Z,1.23
2022-10-14T09:09:52.184Z,1.17
2022-10-14T09:12:25.893Z,1.25
2022-10-14T09:15:03.370Z,1.27
2022-10-14T09:20:36.708Z,1.20
2022-10-14T09:23:15.882Z,1.33
2022-10-14T09:25:57.295Z,0.80
2022-10-14T09:28:36.797Z,1.13
2022-10-14T09:31:05.094Z,0.98
2022-10-14T09:33:36.191Z,0.80
2022-10-14T09:36:18.350Z,0.65
2022-10-14T09:38:56.277Z,0.90
2022-10-14T09:41:31.078Z,1.02
2022-10-14T09:44:22.306Z,1.10
2022-10-14T09:47:02.969Z,1.02
2022-10-14T09:49:35.828Z,1.15
2022-10-14T09:52:02.877Z,0.95
2022-10-14T09:54:31.245Z,1.10
2022-10-14T09:57:08.101Z,1.42
2022-10-14T09:59:59.307Z,1.17
2022-10-14T10:02:36.401Z,1.20
2022-10-14T10:05:25.583Z,1.20
2022-10-14T10:08:11.174Z,0.85
2022-10-14T10:10:38.072Z,1.05
2022-10-14T10:13:06.102Z,1.00
2022-10-14T10:15:33.072Z,1.15
2022-10-14T10:17:59.953Z,0.82
2022-10-14T10:20:33.985Z,0.82
2022-10-14T10:23:29.033Z,1.00
2022-10-14T10:25:55.893Z,1.48
2022-10-14T10:28:32.868Z,1.10
2022-10-14T10:31:17.613Z,0.60
2022-10-14T10:34:03.208Z,0.80
2022-10-14T10:36:45.210Z,0.45
2022-10-14T10:39:29.923Z,0.50
2022-10-14T10:42:20.721Z,0.50
2022-10-14T10:45:00.609Z,0.65
2022-10-14T10:47:33.232Z,0.47
2022-10-14T10:50:24.216Z,0.60
2022-10-14T10:53:11.250Z,0.70
2022-10-14T10:56:06.327Z,0.60
2022-10-14T10:58:38.765Z,0.50
2022-10-14T11:01:17.403Z,0.50
2022-10-14T11:03:59.103Z,0.50
2022-10-14T11:06:55.946Z,1.10
2022-10-14T11:09:51.761Z,0.90
2022-10-14T11:12:38.827Z,0.90
2022-10-14T11:15:48.523Z,1.00
2022-10-14T11:18:26.394Z,0.90
2022-10-14T11:21:21.974Z,1.20
2022-10-14T11:24:05.539Z,1.27
2022-10-14T11:26:50.801Z,1.70
2022-10-14T11:29:39.699Z,1.48
2022-10-14T11:32:25.463Z,1.50
2022-10-14T11:35:17.125Z,1.50
2022-10-14T11:38:02.338Z,1.70
2022-10-14T11:40:38.334Z,1.95
2022-10-14T11:43:11.510Z,2.25
2022-10-14T11:45:46.902Z,2.70
2022-10-14T11:49:00.211Z,2.58
2022-10-14T11:51:34.779Z,3.47
2022-10-14T11:54:04.152Z,2.63
2022-10-14T11:56:39.847Z,3.17
2022-10-14T11:59:38.450Z,2.58
2022-10-14T12:02:44.207Z,3.25
2022-10-14T12:05:37.499Z,2.95
2022-10-14T12:08:22.163Z,2.88
2022-10-14T12:11:18.557Z,2.80
2022-10-14T12:13:48.932Z,3.45
2022-10-14T12:16:17.725Z,3.63
2022-10-14T12:18:49.360Z,3.35
2022-10-14T12:21:50.650Z,3.28
2022-10-14T12:24:24.376Z,2.72
2022-10-14T12:26:52.810Z,3.08
2022-10-14T12:29:32.195Z,3.25
2022-10-14T12:32:05.091Z,3.30
2022-10-14T12:34:38.709Z,4.20
2022-10-14T12:37:27.338Z,3.97
2022-10-14T12:40:03.729Z,3.80
2022-10-14T12:45:01.359Z,4.57
2022-10-14T12:47:33.216Z,4.47
2022-10-14T12:50:02.986Z,4.05
2022-10-14T12:52:37.303Z,4.60
2022-10-14T12:55:30.690Z,4.13
2022-10-14T13:03:27.400Z,4.78
2022-10-14T13:06:26.405Z,4.80
2022-10-14T13:09:11.992Z,4.47
2022-10-14T13:11:43.650Z,4.55
2022-10-14T13:14:30.083Z,4.55
2022-10-14T13:16:57.798Z,4.75
2022-10-14T13:19:44.627Z,5.40
2022-10-14T13:22:33.169Z,4.40
2022-10-14T13:25:14.141Z,4.68
2022-10-14T13:28:02.583Z,5.20
2022-10-14T13:30:44.531Z,4.00
2022-10-14T13:33:16.499Z,7.93
2022-10-14T13:35:57.373Z,4.13
2022-10-14T13:38:24.646Z,4.18
2022-10-14T13:40:52.505Z,5.75
2022-10-14T13:43:21.657Z,4.47
2022-10-14T13:45:52.076Z,4.80
2022-10-14T13:48:32.518Z,4.82
2022-10-14T13:51:23.952Z,5.22
2022-10-14T13:54:04.125Z,4.90
2022-10-14T13:56:32.078Z,5.25
2022-10-14T13:58:59.125Z,4.97
2022-10-14T14:01:39.234Z,4.95
2022-10-14T14:04:06.390Z,4.85
2022-10-14T14:06:45.281Z,4.47
2022-10-14T14:09:23.646Z,4.38
2022-10-14T14:11:54.043Z,4.43
2022-10-14T14:14:31.813Z,3.72
2022-10-14T14:17:00.096Z,3.70
2022-10-14T14:19:35.121Z,4.38
2022-10-14T14:22:19.857Z,4.65
2022-10-14T14:24:48.245Z,5.38
2022-10-14T14:27:17.532Z,3.40
2022-10-14T14:29:46.317Z,3.90
2022-10-14T14:32:18.877Z,3.40
2022-10-14T14:34:47.775Z,3.42
2022-10-14T14:40:27.658Z,3.30
2022-10-14T14:42:59.434Z,3.28
2022-10-14T14:45:43.724Z,3.28
2022-10-14T14:48:11.957Z,4.38
2022-10-14T14:50:43.304Z,3.65
2022-10-14T14:53:41.521Z,2.33
2022-10-14T14:56:14.444Z,3.85
2022-10-14T14:58:50.460Z,2.53
2022-10-14T15:01:20.504Z,1.85
2022-10-14T15:04:13.805Z,1.95
2022-10-14T15:06:51.555Z,1.90
2022-10-14T15:09:24.979Z,1.33
2022-10-14T15:11:56.477Z,1.33
2022-10-14T15:14:34.739Z,1.80
2022-10-14T15:17:05.557Z,1.10
2022-10-14T15:19:38.380Z,1.25
2022-10-14T15:22:25.348Z,0.80
2022-10-14T15:25:05.572Z,1.10
2022-10-14T15:27:38.286Z,1.30
2022-10-14T15:30:24.816Z,1.05
2022-10-14T15:33:51.369Z,0.90
2022-10-14T16:11:30.719Z,5.67
2022-10-14T16:13:57.547Z,2.22
2022-10-14T16:16:37.556Z,2.53
2022-10-14T16:19:04.956Z,6.07
2022-10-14T16:21:31.914Z,90.10
2022-10-14T16:23:59.160Z,5.40
2022-10-14T16:26:26.151Z,4.45
2022-10-14T16:28:54.183Z,6.28
2022-10-14T16:31:21.597Z,1.90
2022-10-14T16:33:51.881Z,2.58
2022-10-14T16:36:18.860Z,3.40
2022-10-14T16:38:45.703Z,1.63
2022-10-14T16:41:12.808Z,1.23
2022-10-14T16:43:39.825Z,0.90
2022-10-14T16:46:10.437Z,1.00
2022-10-14T16:48:40.361Z,1.20
2022-10-14T16:51:07.609Z,2.30
2022-10-14T16:53:48.951Z,2.40
2022-10-14T16:56:36.987Z,2.20
2022-10-14T16:59:04.560Z,2.40
2022-10-14T17:01:31.807Z,2.15
2022-10-14T17:03:58.744Z,2.88
2022-10-14T17:06:26.481Z,2.90
2022-10-14T17:08:53.697Z,3.40
2022-10-14T17:11:20.677Z,1.88
2022-10-14T17:13:47.647Z,10.20
2022-10-14T17:16:14.483Z,4.60
2022-10-14T17:18:41.398Z,2.10
2022-10-14T17:24:06.260Z,1.70
2022-10-14T17:26:33.814Z,0.82
2022-10-14T17:29:01.034Z,1.50
2022-10-14T17:31:29.088Z,5.70
2022-10-14T17:36:37.732Z,2.10
2022-10-14T17:39:30.003Z,2.03
2022-10-14T17:42:04.198Z,1.27
2022-10-14T17:44:32.414Z,1.48
2022-10-14T17:47:00.959Z,1.80
2022-10-14T17:49:29.784Z,1.67
2022-10-14T17:52:02.089Z,3.70
2022-10-14T17:54:31.498Z,5.75
2022-10-14T17:56:58.586Z,6.60
2022-10-14T17:59:26.386Z,5.03
2022-10-14T18:04:43.241Z,4.07
2022-10-14T18:07:13.483Z,16.75
2022-10-14T18:09:43.679Z,11.18
2022-10-14T18:12:13.746Z,5.55
2022-10-14T18:14:41.586Z,8.35
2022-10-14T18:17:16.362Z,8.50
2022-10-14T18:19:46.033Z,8.85
2022-10-14T18:22:18.408Z,6.32
2022-10-14T18:24:51.976Z,9.93
2022-10-14T18:27:23.733Z,7.45
2022-10-14T18:30:04.924Z,5.13
2022-10-14T18:32:32.257Z,7.30
2022-10-14T18:35:03.229Z,6.75
2022-10-14T18:37:35.981Z,7.18
2022-10-14T18:40:12.248Z,7.40
2022-10-14T18:42:48.139Z,6.47
2022-10-14T18:45:18.182Z,6.55
2022-10-14T18:47:50.145Z,6.82
2022-10-14T18:50:17.555Z,6.38
2022-10-14T18:53:03.308Z,8.10
2022-10-14T18:55:49.207Z,7.78
2022-10-14T18:58:22.827Z,9.45
2022-10-14T19:01:01.591Z,10.45
2022-10-14T19:03:30.991Z,6.50
2022-10-14T19:06:01.529Z,6.53
2022-10-14T19:08:28.867Z,4.88
2022-10-14T19:11:06.930Z,4.75
2022-10-14T19:13:37.820Z,5.18
2022-10-14T19:16:11.696Z,4.65
2022-10-14T19:18:39.298Z,4.00
2022-10-14T19:21:11.425Z,4.90
2022-10-14T19:23:45.363Z,4.90
2022-10-14T19:29:00.060Z,4.85
2022-10-14T19:31:29.671Z,4.95
2022-10-14T19:33:57.969Z,4.50
2022-10-14T19:36:25.820Z,4.40
2022-10-14T19:38:57.968Z,5.75
2022-10-14T19:41:26.438Z,7.75
2022-10-14T19:43:53.912Z,7.45
2022-10-14T19:46:27.474Z,8.05
2022-10-14T19:49:03.982Z,8.75
2022-10-14T19:51:34.882Z,12.52
2022-10-14T19:54:02.894Z,33.70
2022-10-14T19:56:35.212Z,21.90
2022-10-14T19:59:08.579Z,15.35
2022-10-14T20:01:47.308Z,12.60
2022-10-14T20:04:16.372Z,10.27
2022-10-14T20:06:46.545Z,11.77
2022-10-14T20:12:02.978Z,9.20
2022-10-14T20:14:45.653Z,8.50
2022-10-14T20:17:14.686Z,6.88
2022-10-14T20:19:52.263Z,7.45
2022-10-14T20:22:19.481Z,6.97
2022-10-14T20:24:51.473Z,7.82
2022-10-14T20:27:23.788Z,7.43
2022-10-14T20:29:51.141Z,6.30
2022-10-14T20:32:21.175Z,6.80
2022-10-14T20:34:48.191Z,6.22
2022-10-14T20:37:15.208Z,6.55
2022-10-14T20:39:42.083Z,6.95
2022-10-14T20:42:08.994Z,7.45
2022-10-14T20:47:09.512Z,8.48
2022-10-14T20:49:41.894Z,8.63
2022-10-14T20:52:10.027Z,8.65
2022-10-14T20:54:40.278Z,8.30
2022-10-14T20:57:07.505Z,9.32
2022-10-14T20:59:36.595Z,7.88
2022-10-14T21:02:05.528Z,8.43
2022-10-14T21:04:35.235Z,9.43
2022-10-14T21:07:05.392Z,10.35
2022-10-14T21:09:34.897Z,10.45
2022-10-14T21:12:01.726Z,11.70
2022-10-14T21:14:29.840Z,12.48
2022-10-14T21:16:56.764Z,10.45
2022-10-14T21:19:37.812Z,18.73
2022-10-14T21:22:09.489Z,17.25
2022-10-14T21:24:36.459Z,16.67
2022-10-14T21:27:03.424Z,15.63
2022-10-14T21:29:30.544Z,12.57
2022-10-14T21:32:03.456Z,11.00
2022-10-14T21:34:30.479Z,10.65
2022-10-14T21:37:03.543Z,9.82
2022-10-14T21:41:57.365Z,12.32
2022-10-14T21:44:27.755Z,24.13
2022-10-14T21:46:54.804Z,34.85
2022-10-14T21:49:21.747Z,49.22
2022-10-14T21:51:48.628Z,25.23
2022-10-14T21:54:15.748Z,17.88
2022-10-14T21:56:42.737Z,17.17
2022-10-14T21:59:10.929Z,8.80
2022-10-14T22:01:37.909Z,14.90
2022-10-14T22:04:06.649Z,9.65
2022-10-14T22:06:35.166Z,8.52
2022-10-14T22:09:05.047Z,7.47
2022-10-14T22:11:38.302Z,6.32
2022-10-14T22:14:08.282Z,6.60
2022-10-14T22:16:35.592Z,7.03
2022-10-14T22:19:04.283Z,7.40
2022-10-14T22:21:33.472Z,7.68
2022-10-14T22:24:01.222Z,7.15
2022-10-14T22:26:29.887Z,7.15
2022-10-14T22:29:07.706Z,7.90
2022-10-14T22:31:35.134Z,7.88
2022-10-14T22:34:04.693Z,7.65
2022-10-14T22:36:32.647Z,7.57
2022-10-14T22:39:01.338Z,7.75
2022-10-14T22:41:33.915Z,7.07
2022-10-14T22:44:02.751Z,7.95
2022-10-14T22:46:31.568Z,8.07
2022-10-14T22:48:59.424Z,7.85
2022-10-14T22:51:28.865Z,8.23
2022-10-14T22:53:55.875Z,8.70
2022-10-14T22:56:25.191Z,8.35
2022-10-14T22:58:56.891Z,8.98
2022-10-14T23:01:26.090Z,8.48
2022-10-14T23:03:53.138Z,8.13
2022-10-14T23:06:20.023Z,8.40
2022-10-14T23:08:46.895Z,7.97
2022-10-14T23:11:16.204Z,7.63
2022-10-14T23:13:43.636Z,6.65
2022-10-14T23:16:19.502Z,6.78
2022-10-14T23:18:46.914Z,6.63
2022-10-14T23:21:20.547Z,6.97
2022-10-14T23:23:48.740Z,7.40
2022-10-14T23:26:23.922Z,7.00
2022-10-14T23:28:52.731Z,6.43
2022-10-14T23:31:21.574Z,7.03
2022-10-14T23:33:49.191Z,6.35
2022-10-14T23:36:16.402Z,6.70
2022-10-14T23:38:43.453Z,7.22
2022-10-14T23:41:11.618Z,6.68
2022-10-14T23:43:38.955Z,6.90
2022-10-14T23:46:06.897Z,6.15
2022-10-14T23:48:34.521Z,6.93
2022-10-14T23:51:01.593Z,5.78
2022-10-14T23:53:28.550Z,6.05
2022-10-14T23:55:56.161Z,6.97
2022-10-14T23:58:23.678Z,6.57
